Time;durP1;ratioP1;P1;durP2;ratioP2;P2;SDS_P1;SDS_P2;PMS_P1;PMS_P2;Temp;Humidity;BMP_temperature;BMP_pressure;BME280_temperature;BME280_humidity;BME280_pressure;Samples;Min_cycle;Max_cycle;Signal;HPM_P1;HPM_P2
2021/07/31 00:00:58;;;;;;;11.18;4.88;;;20.40;56.70;;;;;;5048762;28;20210;-73
2021/07/31 00:03:27;;;;;;;4.90;4.03;;;20.30;57.20;;;;;;5050749;28;20205;-74
2021/07/31 00:05:54;;;;;;;6.35;3.80;;;20.20;57.30;;;;;;5049393;28;20206;-74
2021/07/31 00:08:21;;;;;;;5.03;3.53;;;20.10;57.60;;;;;;5050698;28;20681;-73
2021/07/31 00:10:48;;;;;;;4.68;3.13;;;20.00;57.90;;;;;;5049102;28;20206;-75
2021/07/31 00:13:15;;;;;;;3.83;3.10;;;19.90;58.00;;;;;;5050609;28;20198;-75
2021/07/31 00:15:42;;;;;;;4.82;3.35;;;19.80;58.30;;;;;;5050078;28;20193;-74
2021/07/31 00:18:10;;;;;;;5.53;3.53;;;19.80;58.50;;;;;;5061633;28;20674;-73
2021/07/31 00:20:38;;;;;;;4.80;2.90;;;19.70;58.80;;;;;;5049736;28;20240;-74
2021/07/31 00:23:06;;;;;;;2.45;2.25;;;19.60;58.90;;;;;;5048750;28;20202;-75
2021/07/31 00:25:34;;;;;;;2.33;2.13;;;19.60;59.00;;;;;;5047827;28;20526;-74
2021/07/31 00:28:01;;;;;;;1.73;1.63;;;19.50;59.20;;;;;;5052424;28;20190;-75
2021/07/31 00:30:28;;;;;;;1.60;1.50;;;19.50;59.40;;;;;;5049254;28;20622;-73
2021/07/31 00:32:56;;;;;;;2.30;2.10;;;19.50;59.60;;;;;;5050102;28;20202;-74
2021/07/31 00:35:23;;;;;;;1.88;1.70;;;19.50;59.80;;;;;;5046946;28;20208;-73
2021/07/31 00:37:54;;;;;;;1.65;1.50;;;19.40;59.80;;;;;;5049707;28;20202;-73
2021/07/31 00:40:21;;;;;;;1.90;1.70;;;19.40;60.10;;;;;;5049086;28;20190;-74
2021/07/31 00:42:48;;;;;;;1.77;1.60;;;19.40;60.40;;;;;;5049554;28;20205;-73
2021/07/31 00:45:15;;;;;;;3.63;1.80;;;19.30;60.70;;;;;;5048247;28;20228;-74
2021/07/31 00:47:44;;;;;;;1.90;1.70;;;19.30;61.20;;;;;;5048761;28;20653;-74
2021/07/31 00:50:12;;;;;;;1.98;1.88;;;19.20;61.90;;;;;;5047788;28;20232;-74
2021/07/31 00:52:40;;;;;;;2.05;1.80;;;19.10;62.40;;;;;;5047428;28;20562;-74
2021/07/31 00:55:12;;;;;;;2.35;1.92;;;19.00;62.80;;;;;;5048833;28;20258;-74
2021/07/31 00:57:41;;;;;;;1.80;1.70;;;18.90;63.30;;;;;;5049614;28;20201;-74
2021/07/31 01:00:34;;;;;;;1.77;1.67;;;18.90;63.80;;;;;;5027997;28;20214;-74
2021/07/31 01:03:00;;;;;;;1.70;1.60;;;18.80;64.30;;;;;;5047986;28;20219;-74
2021/07/31 01:05:27;;;;;;;1.42;1.40;;;18.70;64.60;;;;;;5049416;28;20549;-73
2021/07/31 01:07:55;;;;;;;2.92;1.65;;;18.70;65.10;;;;;;5047053;28;20621;-73
2021/07/31 01:10:25;;;;;;;2.75;1.50;;;18.70;65.60;;;;;;5046931;28;20220;-74
2021/07/31 01:12:55;;;;;;;2.55;1.70;;;18.60;66.10;;;;;;5047851;28;20677;-74
2021/07/31 01:15:22;;;;;;;2.30;2.10;;;18.50;66.70;;;;;;5047128;28;20215;-74
2021/07/31 01:17:49;;;;;;;2.50;2.30;;;18.50;67.80;;;;;;5048198;28;20212;-75
2021/07/31 01:20:16;;;;;;;2.15;1.95;;;18.40;69.80;;;;;;5049108;28;20240;-74
2021/07/31 01:22:52;;;;;;;3.93;2.10;;;18.30;69.90;;;;;;5048119;28;20608;-74
2021/07/31 01:25:20;;;;;;;2.00;1.90;;;18.20;70.60;;;;;;5046769;28;20214;-74
2021/07/31 01:27:47;;;;;;;2.07;1.97;;;18.20;71.20;;;;;;5047954;28;20347;-74
2021/07/31 01:30:14;;;;;;;3.17;1.80;;;18.10;71.50;;;;;;5048603;28;20220;-74
2021/07/31 01:32:41;;;;;;;1.30;1.30;;;18.10;72.10;;;;;;5049035;28;20197;-74
2021/07/31 01:35:09;;;;;;;1.77;1.67;;;18.10;72.60;;;;;;5048459;28;20210;-75
2021/07/31 01:37:38;;;;;;;1.87;1.77;;;18.10;73.00;;;;;;5048416;28;20523;-74
2021/07/31 01:40:08;;;;;;;2.10;1.83;;;18.10;73.70;;;;;;5046668;28;20203;-74
2021/07/31 01:42:35;;;;;;;1.63;1.53;;;18.00;74.40;;;;;;5050816;28;20496;-75
2021/07/31 01:45:02;;;;;;;1.50;1.40;;;18.00;74.90;;;;;;5047017;28;20219;-74
2021/07/31 01:47:29;;;;;;;2.80;1.90;;;18.00;75.40;;;;;;5049145;28;20226;-74
2021/07/31 01:50:01;;;;;;;1.77;1.67;;;17.90;76.50;;;;;;5047585;28;20328;-74
2021/07/31 01:52:35;;;;;;;1.77;1.67;;;17.80;77.10;;;;;;5046393;28;20711;-74
2021/07/31 01:55:02;;;;;;;1.83;1.70;;;17.80;77.70;;;;;;5047261;28;20550;-74
2021/07/31 01:57:35;;;;;;;1.80;1.70;;;17.80;79.20;;;;;;5047218;28;20231;-74
2021/07/31 02:00:22;;;;;;;2.33;1.70;;;17.70;79.20;;;;;;4967510;28;20240;-74
2021/07/31 02:02:58;;;;;;;1.87;1.63;;;17.60;80.10;;;;;;4951135;28;20236;-74
2021/07/31 02:05:31;;;;;;;1.87;1.77;;;17.60;80.90;;;;;;4945053;28;20253;-74
2021/07/31 02:07:58;;;;;;;2.85;1.60;;;17.50;81.30;;;;;;4950857;28;20216;-74
2021/07/31 02:10:26;;;;;;;2.47;1.70;;;17.50;82.10;;;;;;4950316;28;20307;-74
2021/07/31 02:12:57;;;;;;;2.27;2.07;;;17.50;82.50;;;;;;4951010;28;20293;-74
2021/07/31 02:15:29;;;;;;;1.77;1.50;;;17.50;83.10;;;;;;4950696;28;20208;-74
2021/07/31 02:18:00;;;;;;;1.40;1.30;;;17.50;83.60;;;;;;4950652;28;20708;-74
2021/07/31 02:20:28;;;;;;;2.30;1.60;;;17.50;83.90;;;;;;4966722;28;20281;-74
2021/07/31 02:23:04;;;;;;;1.73;1.63;;;17.50;84.40;;;;;;4949767;28;20215;-74
2021/07/31 02:25:50;;;;;;;2.53;2.00;;;17.50;84.80;;;;;;4955712;28;20813;-74
2021/07/31 02:28:36;;;;;;;2.00;1.90;;;17.40;85.60;;;;;;4968767;28;20204;-74
2021/07/31 02:31:04;;;;;;;2.43;2.23;;;17.30;86.40;;;;;;4967359;28;20577;-74
2021/07/31 02:33:33;;;;;;;2.53;2.00;;;17.40;87.10;;;;;;4950634;28;20255;-74
2021/07/31 02:36:03;;;;;;;2.57;1.93;;;17.30;87.50;;;;;;4950749;28;20296;-74
2021/07/31 02:38:54;;;;;;;2.60;2.20;;;17.30;88.20;;;;;;5037564;28;20206;-74
2021/07/31 02:41:21;;;;;;;2.10;1.90;;;17.20;89.00;;;;;;5045945;28;20230;-74
2021/07/31 02:43:50;;;;;;;2.30;2.10;;;17.20;90.00;;;;;;5047230;28;20369;-74
2021/07/31 02:46:17;;;;;;;2.53;2.03;;;17.10;90.20;;;;;;5047469;28;20205;-74
2021/07/31 02:48:44;;;;;;;1.80;1.70;;;17.10;90.40;;;;;;5047122;28;20198;-74
2021/07/31 02:51:13;;;;;;;2.57;1.70;;;17.10;90.60;;;;;;5046522;28;20646;-74
2021/07/31 02:53:59;;;;;;;5.37;2.10;;;17.10;90.80;;;;;;5046815;28;20254;-74
2021/07/31 02:56:28;;;;;;;2.63;2.30;;;17.10;91.00;;;;;;5045418;28;20259;-74
2021/07/31 02:58:57;;;;;;;2.27;2.10;;;17.00;91.60;;;;;;5048488;28;20194;-74
2021/07/31 03:01:24;;;;;;;2.60;2.10;;;17.00;92.00;;;;;;5047816;28;20551;-74
2021/07/31 03:03:51;;;;;;;2.10;2.00;;;17.00;91.80;;;;;;5046071;28;20211;-74
2021/07/31 03:06:19;;;;;;;2.60;2.40;;;16.90;92.10;;;;;;5046797;28;20712;-74
2021/07/31 03:08:47;;;;;;;1.80;1.70;;;16.90;92.20;;;;;;5045856;28;20289;-75
2021/07/31 03:11:14;;;;;;;2.27;2.00;;;16.80;92.30;;;;;;5045814;28;20581;-74
2021/07/31 03:13:43;;;;;;;2.63;2.10;;;16.90;92.50;;;;;;5046232;28;21109;-74
2021/07/31 03:16:12;;;;;;;4.27;2.83;;;16.90;92.80;;;;;;5047087;28;20271;-74
2021/07/31 03:18:44;;;;;;;3.23;2.10;;;16.80;93.10;;;;;;5046982;28;20197;-74
2021/07/31 03:21:14;;;;;;;3.00;2.73;;;16.80;93.40;;;;;;5043970;28;20233;-74
2021/07/31 03:23:58;;;;;;;3.43;2.70;;;16.70;93.70;;;;;;5038099;28;20200;-74
2021/07/31 03:26:25;;;;;;;3.60;2.83;;;16.60;94.10;;;;;;5040207;28;20603;-74
2021/07/31 03:28:54;;;;;;;3.77;2.57;;;16.60;94.40;;;;;;5049866;28;20199;-74
2021/07/31 03:31:23;;;;;;;2.40;2.20;;;16.60;94.70;;;;;;5050459;28;20703;-75
2021/07/31 03:33:53;;;;;;;3.07;2.40;;;16.60;94.80;;;;;;5037978;28;20300;-74
2021/07/31 03:36:21;;;;;;;2.30;2.10;;;16.60;94.90;;;;;;5049760;28;20206;-73
2021/07/31 03:39:09;;;;;;;2.63;2.43;;;16.60;95.00;;;;;;5048985;28;20235;-73
2021/07/31 03:41:37;;;;;;;2.30;2.20;;;16.70;95.20;;;;;;5048902;28;20214;-73
2021/07/31 03:44:06;;;;;;;2.30;2.20;;;16.60;95.40;;;;;;5049379;28;20198;-72
2021/07/31 03:46:44;;;;;;;2.43;2.20;;;16.60;95.90;;;;;;5046360;28;20661;-72
2021/07/31 03:49:13;;;;;;;2.53;2.00;;;16.60;95.70;;;;;;5049742;28;20608;-73
2021/07/31 03:51:41;;;;;;;2.63;2.20;;;16.60;95.80;;;;;;5049647;28;20229;-73
2021/07/31 03:54:08;;;;;;;2.30;1.90;;;16.60;95.90;;;;;;5048132;28;20566;-73
2021/07/31 03:56:35;;;;;;;2.30;2.10;;;16.70;96.00;;;;;;5048118;28;20805;-74
2021/07/31 03:59:09;;;;;;;2.40;2.20;;;16.60;96.10;;;;;;5047791;28;20209;-74
2021/07/31 04:01:35;;;;;;;3.47;2.43;;;16.70;96.20;;;;;;5049059;28;20221;-74
2021/07/31 04:04:08;;;;;;;2.77;2.47;;;16.70;96.30;;;;;;5050026;28;20739;-74
2021/07/31 04:06:36;;;;;;;2.10;2.00;;;16.70;96.30;;;;;;5049116;28;20213;-73
2021/07/31 04:09:21;;;;;;;2.40;2.30;;;16.70;96.40;;;;;;5042715;28;20323;-74
2021/07/31 04:12:07;;;;;;;2.93;2.63;;;16.70;96.50;;;;;;5050070;28;20224;-74
2021/07/31 04:14:53;;;;;;;6.13;2.80;;;16.70;96.70;;;;;;5050344;28;20204;-73
2021/07/31 04:17:21;;;;;;;3.10;2.77;;;16.70;97.10;;;;;;5049309;28;20201;-74
2021/07/31 04:19:51;;;;;;;2.80;2.60;;;16.60;97.30;;;;;;5049174;28;20234;-74
2021/07/31 04:22:18;;;;;;;2.43;1.97;;;16.60;97.50;;;;;;5048098;28;20209;-74
2021/07/31 04:24:48;;;;;;;2.50;2.30;;;16.70;97.70;;;;;;5047862;28;20208;-73
2021/07/31 04:27:15;;;;;;;2.10;2.00;;;16.70;97.70;;;;;;5044936;28;20260;-74
2021/07/31 04:29:42;;;;;;;3.87;2.23;;;16.70;97.70;;;;;;5047893;28;20214;-74
2021/07/31 04:32:09;;;;;;;3.57;2.43;;;16.80;97.90;;;;;;5048695;28;20217;-73
2021/07/31 04:34:36;;;;;;;2.83;2.27;;;16.80;98.10;;;;;;5049641;28;20194;-74
2021/07/31 04:37:05;;;;;;;2.87;2.30;;;16.90;98.20;;;;;;5049919;28;20221;-73
2021/07/31 04:39:32;;;;;;;2.70;2.50;;;17.00;98.30;;;;;;5047738;28;20368;-74
2021/07/31 04:41:59;;;;;;;2.60;2.40;;;17.00;98.50;;;;;;5048993;28;20197;-74
2021/07/31 04:44:27;;;;;;;2.67;2.40;;;17.00;98.70;;;;;;5048060;28;20215;-73
2021/07/31 04:46:54;;;;;;;2.70;2.43;;;17.10;98.80;;;;;;5048295;28;20209;-73
2021/07/31 04:49:21;;;;;;;2.47;2.13;;;17.10;98.80;;;;;;5065649;28;20601;-74
2021/07/31 04:51:48;;;;;;;2.03;1.87;;;17.20;98.90;;;;;;5049822;28;20201;-73
2021/07/31 04:54:16;;;;;;;3.03;2.10;;;17.30;98.90;;;;;;5047111;28;20226;-74
2021/07/31 04:56:43;;;;;;;2.30;2.10;;;17.40;98.90;;;;;;5048252;28;20586;-73
2021/07/31 04:59:10;;;;;;;3.30;3.00;;;17.50;98.80;;;;;;5048846;28;20201;-73
2021/07/31 05:01:37;;;;;;;2.50;2.30;;;17.50;98.90;;;;;;5049577;28;20608;-73
2021/07/31 05:04:04;;;;;;;2.30;2.10;;;17.60;98.90;;;;;;5048682;28;20241;-73
2021/07/31 05:06:31;;;;;;;3.27;2.90;;;17.70;98.70;;;;;;5049065;28;20272;-73
2021/07/31 05:08:58;;;;;;;3.77;2.57;;;17.80;98.80;;;;;;5047570;28;20637;-73
2021/07/31 05:11:26;;;;;;;2.80;2.60;;;17.80;98.70;;;;;;5048599;28;20232;-73
2021/07/31 05:13:53;;;;;;;2.40;2.30;;;17.80;98.70;;;;;;5049591;28;20221;-73
2021/07/31 05:16:20;;;;;;;3.33;2.80;;;17.90;98.80;;;;;;5047952;28;20681;-72
2021/07/31 05:18:47;;;;;;;5.27;3.30;;;18.00;98.80;;;;;;5049464;28;20198;-73
2021/07/31 05:21:14;;;;;;;3.33;2.97;;;18.10;98.90;;;;;;5047356;28;20713;-74
2021/07/31 05:23:41;;;;;;;3.47;2.57;;;18.10;98.90;;;;;;5047734;28;20195;-73
2021/07/31 05:26:09;;;;;;;2.55;2.20;;;18.30;98.90;;;;;;5055104;28;20206;-73
2021/07/31 05:28:38;;;;;;;2.40;2.20;;;18.40;98.70;;;;;;5047871;28;20196;-73
2021/07/31 05:31:05;;;;;;;3.50;2.30;;;18.60;98.60;;;;;;5039074;28;20319;-73
2021/07/31 05:33:32;;;;;;;2.40;2.20;;;18.70;98.50;;;;;;5047367;28;20207;-73
2021/07/31 05:35:59;;;;;;;3.00;2.63;;;18.90;98.40;;;;;;5048585;28;20245;-73
2021/07/31 05:38:26;;;;;;;3.43;2.80;;;19.20;98.20;;;;;;5047912;28;20192;-73
2021/07/31 05:40:52;;;;;;;3.00;2.60;;;19.50;97.80;;;;;;5063771;28;20208;-73
2021/07/31 05:43:19;;;;;;;3.28;2.58;;;19.70;97.50;;;;;;5049264;28;20216;-74
2021/07/31 05:45:49;;;;;;;6.32;2.67;;;19.80;97.20;;;;;;5048240;28;20193;-74
2021/07/31 05:48:16;;;;;;;3.03;2.72;;;19.90;97.10;;;;;;5047437;28;20209;-74
2021/07/31 05:50:43;;;;;;;2.90;2.70;;;19.90;97.00;;;;;;5047653;28;20240;-73
2021/07/31 05:53:10;;;;;;;4.00;3.28;;;20.00;96.90;;;;;;5046791;28;20228;-73
2021/07/31 05:55:37;;;;;;;6.22;3.00;;;20.10;96.90;;;;;;5047302;28;20190;-74
2021/07/31 05:58:04;;;;;;;3.33;2.97;;;20.20;96.90;;;;;;5047310;28;20634;-74
2021/07/31 06:00:31;;;;;;;4.68;2.05;;;20.40;97.00;;;;;;5046832;28;20233;-74
2021/07/31 06:03:01;;;;;;;4.45;2.80;;;21.60;95.80;;;;;;5059619;28;20229;-74
2021/07/31 06:05:27;;;;;;;2.45;2.25;;;22.80;93.70;;;;;;5046847;28;20212;-73
2021/07/31 06:07:54;;;;;;;3.92;2.50;;;24.50;91.40;;;;;;5046242;28;20669;-73
2021/07/31 06:10:21;;;;;;;2.70;2.50;;;26.10;85.90;;;;;;5047627;28;20577;-75
2021/07/31 06:12:48;;;;;;;3.13;2.17;;;27.60;78.90;;;;;;5047500;28;20214;-74
2021/07/31 06:15:15;;;;;;;5.70;2.50;;;29.00;73.20;;;;;;5046014;28;20324;-74
2021/07/31 06:17:42;;;;;;;2.55;2.40;;;30.40;68.50;;;;;;5048228;28;20193;-74
2021/07/31 06:20:11;;;;;;;5.55;2.55;;;31.80;62.80;;;;;;5043873;28;20688;-75
2021/07/31 06:22:38;;;;;;;3.33;2.67;;;33.30;57.70;;;;;;5047929;28;20198;-75
2021/07/31 06:25:05;;;;;;;5.38;2.47;;;34.70;54.40;;;;;;5042871;28;20460;-75
2021/07/31 06:27:32;;;;;;;2.58;2.42;;;36.00;51.10;;;;;;5046859;28;20267;-75
2021/07/31 06:29:59;;;;;;;3.05;2.63;;;37.20;47.90;;;;;;5064422;28;20213;-74
2021/07/31 06:32:26;;;;;;;4.28;2.80;;;38.30;45.00;;;;;;5048918;28;20194;-75
2021/07/31 06:34:53;;;;;;;2.80;2.60;;;39.40;42.70;;;;;;5047974;28;20198;-75
2021/07/31 06:37:21;;;;;;;2.38;2.20;;;40.60;41.00;;;;;;5045907;28;20229;-75
2021/07/31 06:39:48;;;;;;;2.80;2.60;;;40.60;39.70;;;;;;5046469;28;20210;-74
2021/07/31 06:42:15;;;;;;;3.15;2.95;;;39.70;39.00;;;;;;5046486;28;20236;-74
2021/07/31 06:44:42;;;;;;;3.13;2.42;;;39.00;39.50;;;;;;5063128;28;20210;-74
2021/07/31 06:47:09;;;;;;;2.60;2.40;;;38.50;38.90;;;;;;5047592;28;20198;-74
2021/07/31 06:49:36;;;;;;;3.45;2.60;;;38.20;39.10;;;;;;5046743;28;20213;-74
2021/07/31 06:52:03;;;;;;;2.90;2.28;;;38.50;38.20;;;;;;5047387;28;20222;-73
2021/07/31 06:54:31;;;;;;;4.03;2.85;;;38.60;37.50;;;;;;5045455;28;20208;-74
2021/07/31 06:56:58;;;;;;;2.63;2.45;;;39.80;35.90;;;;;;5047120;28;20204;-73
2021/07/31 06:59:25;;;;;;;2.72;2.53;;;41.00;34.90;;;;;;5047694;28;20201;-73
2021/07/31 07:01:52;;;;;;;2.92;2.72;;;41.50;33.80;;;;;;5048169;28;20247;-73
2021/07/31 07:04:19;;;;;;;5.03;2.40;;;41.30;33.90;;;;;;5048518;28;20192;-73
2021/07/31 07:06:46;;;;;;;2.33;2.22;;;42.10;33.10;;;;;;5043006;28;20220;-73
2021/07/31 07:09:13;;;;;;;3.10;2.90;;;43.40;31.80;;;;;;5049828;28;20229;-73
2021/07/31 07:11:42;;;;;;;4.63;3.35;;;44.30;30.20;;;;;;5050468;28;20225;-73
2021/07/31 07:14:09;;;;;;;3.50;3.20;;;44.80;29.50;;;;;;5051889;28;20661;-73
2021/07/31 07:16:36;;;;;;;4.28;3.08;;;44.90;28.70;;;;;;5050672;28;20197;-73
2021/07/31 07:19:03;;;;;;;2.92;2.72;;;44.30;28.60;;;;;;5051669;28;20197;-73
2021/07/31 07:21:30;;;;;;;3.20;2.40;;;43.80;28.90;;;;;;5051525;28;20343;-74
2021/07/31 07:23:57;;;;;;;3.67;2.80;;;42.70;29.20;;;;;;5047788;28;20308;-74
2021/07/31 07:26:24;;;;;;;4.22;2.70;;;41.10;29.50;;;;;;5049697;28;20205;-74
2021/07/31 07:28:52;;;;;;;2.88;2.45;;;39.60;30.30;;;;;;5053256;28;20197;-74
2021/07/31 07:31:19;;;;;;;2.55;2.33;;;38.40;31.40;;;;;;5051342;28;20224;-73
2021/07/31 07:33:46;;;;;;;1.83;1.73;;;37.70;32.20;;;;;;5051652;28;20197;-75
2021/07/31 07:36:14;;;;;;;2.15;2.05;;;37.50;32.50;;;;;;5051017;28;20192;-75
2021/07/31 07:38:41;;;;;;;2.35;1.98;;;37.00;32.80;;;;;;5050205;28;20196;-75
2021/07/31 07:41:09;;;;;;;4.45;2.25;;;37.70;33.10;;;;;;5050120;28;20193;-74
2021/07/31 07:43:36;;;;;;;3.28;2.45;;;39.10;32.00;;;;;;5049845;28;20212;-74
2021/07/31 07:46:04;;;;;;;2.45;2.35;;;39.50;31.50;;;;;;5049263;28;20208;-73
2021/07/31 07:48:32;;;;;;;3.80;2.50;;;39.20;31.70;;;;;;5049892;28;20228;-74
2021/07/31 07:50:59;;;;;;;5.65;2.80;;;38.60;32.00;;;;;;5049351;28;20291;-74
2021/07/31 07:53:26;;;;;;;2.50;2.40;;;38.10;32.30;;;;;;5050319;28;20190;-74
2021/07/31 07:55:53;;;;;;;2.97;2.50;;;37.70;33.30;;;;;;5049835;28;20624;-74
2021/07/31 07:58:20;;;;;;;5.32;2.53;;;37.20;32.70;;;;;;5050834;28;20683;-74
2021/07/31 08:00:46;;;;;;;2.40;2.30;;;36.60;33.00;;;;;;5050643;28;20215;-74
2021/07/31 08:03:15;;;;;;;2.50;2.30;;;36.10;33.70;;;;;;5049913;28;20444;-74
2021/07/31 08:05:42;;;;;;;2.28;2.17;;;35.70;34.00;;;;;;5049004;28;20278;-74
2021/07/31 08:08:09;;;;;;;2.95;2.65;;;35.10;34.50;;;;;;5048608;28;20211;-75
2021/07/31 08:10:36;;;;;;;2.50;2.30;;;34.60;35.00;;;;;;5048385;28;20224;-74
2021/07/31 08:13:03;;;;;;;4.38;2.50;;;34.20;35.50;;;;;;5051150;28;20205;-74
2021/07/31 08:15:31;;;;;;;2.50;2.30;;;33.90;36.10;;;;;;5049949;28;20198;-75
2021/07/31 08:17:58;;;;;;;3.25;2.33;;;33.80;36.30;;;;;;5049240;28;20202;-75
2021/07/31 08:20:26;;;;;;;2.25;2.13;;;33.80;36.30;;;;;;5048640;28;20734;-74
2021/07/31 08:22:54;;;;;;;2.30;2.10;;;33.90;36.40;;;;;;5054551;28;20213;-75
2021/07/31 08:25:20;;;;;;;2.30;2.10;;;33.80;36.30;;;;;;5049331;28;20253;-75
2021/07/31 08:27:47;;;;;;;1.73;1.50;;;33.60;36.60;;;;;;5050353;28;20194;-75
2021/07/31 08:30:14;;;;;;;3.72;2.10;;;33.50;37.00;;;;;;5049580;28;20915;-74
2021/07/31 08:32:44;;;;;;;2.15;2.05;;;33.20;37.20;;;;;;5050483;28;20225;-74
2021/07/31 08:35:11;;;;;;;2.42;2.22;;;33.00;37.40;;;;;;5050020;28;20479;-74
2021/07/31 08:37:40;;;;;;;2.15;1.98;;;33.00;37.60;;;;;;5047429;28;21496;-74
2021/07/31 08:40:09;;;;;;;2.25;2.05;;;33.30;37.50;;;;;;5049195;28;20205;-74
2021/07/31 08:42:37;;;;;;;2.10;1.80;;;33.20;37.50;;;;;;5049200;28;20605;-74
2021/07/31 08:45:05;;;;;;;4.15;2.13;;;32.80;37.80;;;;;;5047996;28;20240;-75
2021/07/31 08:47:33;;;;;;;2.30;2.10;;;32.70;38.20;;;;;;5049637;28;20201;-74
2021/07/31 08:50:01;;;;;;;2.00;1.90;;;32.50;38.50;;;;;;5049502;28;20658;-74
2021/07/31 08:52:31;;;;;;;2.17;1.98;;;32.30;38.90;;;;;;5047963;28;20230;-73
2021/07/31 08:55:00;;;;;;;2.30;1.75;;;31.90;39.30;;;;;;5045272;28;20645;-75
2021/07/31 08:57:27;;;;;;;2.17;2.00;;;31.70;39.70;;;;;;5049567;28;20202;-75
2021/07/31 08:59:54;;;;;;;2.22;2.05;;;31.50;40.10;;;;;;5048265;28;20259;-74
2021/07/31 09:02:22;;;;;;;2.00;1.80;;;31.30;40.50;;;;;;5048307;28;20202;-74
2021/07/31 09:04:51;;;;;;;2.20;2.00;;;31.00;40.90;;;;;;5050224;28;20230;-74
2021/07/31 09:07:17;;;;;;;2.00;1.90;;;30.80;41.30;;;;;;5047543;28;20233;-74
2021/07/31 09:09:46;;;;;;;2.53;2.00;;;30.80;41.60;;;;;;5047670;28;20205;-74
2021/07/31 09:12:14;;;;;;;7.05;2.50;;;30.90;41.90;;;;;;5047494;28;20325;-74
2021/07/31 09:14:48;;;;;;;4.18;2.00;;;31.00;41.90;;;;;;5049901;28;20200;-74
2021/07/31 09:17:25;;;;;;;2.03;1.80;;;31.10;41.70;;;;;;5047318;28;20201;-74
2021/07/31 09:19:53;;;;;;;2.13;1.90;;;31.20;41.80;;;;;;5042502;28;20236;-74
2021/07/31 09:22:20;;;;;;;4.10;2.20;;;31.10;41.90;;;;;;5045532;28;20244;-75
2021/07/31 09:25:08;;;;;;;2.40;2.20;;;31.00;42.30;;;;;;5049251;28;20194;-74
2021/07/31 09:27:37;;;;;;;2.22;2.13;;;31.10;42.70;;;;;;5034959;28;20236;-73
2021/07/31 09:30:05;;;;;;;2.30;2.10;;;31.10;42.70;;;;;;5050168;28;20202;-74
2021/07/31 09:32:40;;;;;;;3.15;2.72;;;31.20;42.80;;;;;;5049362;28;20690;-73
2021/07/31 09:35:24;;;;;;;2.40;2.20;;;31.10;43.00;;;;;;5049287;28;20200;-74
2021/07/31 09:37:53;;;;;;;2.10;2.00;;;31.40;43.20;;;;;;5046804;28;20276;-74
2021/07/31 09:40:30;;;;;;;3.67;2.05;;;32.40;42.00;;;;;;5047836;28;20531;-73
2021/07/31 09:43:12;;;;;;;1.75;1.65;;;33.50;41.20;;;;;;5049038;28;20193;-73
2021/07/31 09:45:40;;;;;;;1.90;1.80;;;35.70;39.30;;;;;;5043962;28;20210;-74
2021/07/31 09:48:08;;;;;;;2.75;1.90;;;37.60;37.20;;;;;;5046714;28;20519;-74
2021/07/31 09:50:38;;;;;;;2.22;1.90;;;39.20;35.70;;;;;;5047315;28;20205;-73
2021/07/31 09:53:10;;;;;;;2.58;2.00;;;40.90;33.80;;;;;;5046774;28;20225;-74
2021/07/31 09:55:42;;;;;;;2.42;2.22;;;42.30;32.40;;;;;;5039905;28;20565;-74
2021/07/31 09:58:13;;;;;;;4.55;2.50;;;43.30;31.20;;;;;;5043930;28;20205;-74
2021/07/31 10:00:41;;;;;;;2.65;2.45;;;43.80;30.00;;;;;;5046485;28;20243;-74
2021/07/31 10:03:10;;;;;;;3.63;2.92;;;44.60;29.60;;;;;;5048821;28;20220;-73
2021/07/31 10:05:40;;;;;;;9.32;3.17;;;45.40;28.80;;;;;;5048860;28;20223;-74
2021/07/31 10:08:07;;;;;;;2.60;2.42;;;45.80;28.10;;;;;;5046180;28;20213;-73
2021/07/31 10:10:34;;;;;;;9.27;2.97;;;46.20;27.80;;;;;;5047240;28;20201;-73
2021/07/31 10:13:01;;;;;;;3.38;3.17;;;46.40;27.30;;;;;;5047126;28;20248;-74
2021/07/31 10:15:30;;;;;;;4.13;3.17;;;46.00;27.20;;;;;;5047278;28;20209;-74
2021/07/31 10:17:57;;;;;;;3.72;2.80;;;45.60;27.50;;;;;;5048137;28;20193;-73
2021/07/31 10:20:26;;;;;;;3.47;3.28;;;45.50;27.40;;;;;;5050065;28;20260;-74
2021/07/31 10:22:53;;;;;;;3.30;3.20;;;45.90;27.10;;;;;;5045306;28;20201;-74
2021/07/31 10:25:20;;;;;;;2.80;2.60;;;46.20;26.80;;;;;;5047463;28;20604;-74
2021/07/31 10:27:48;;;;;;;3.22;3.03;;;46.00;26.90;;;;;;5048625;28;20561;-73
2021/07/31 10:30:26;;;;;;;5.45;3.30;;;46.30;26.90;;;;;;5044401;28;20679;-73
2021/07/31 10:32:54;;;;;;;3.28;3.08;;;46.90;26.60;;;;;;5048692;28;20251;-73
2021/07/31 10:35:32;;;;;;;6.93;3.03;;;47.50;26.10;;;;;;5048637;28;20580;-73
2021/07/31 10:38:01;;;;;;;3.53;3.22;;;47.80;25.50;;;;;;5047319;28;20193;-72
2021/07/31 10:40:52;;;;;;;3.63;3.42;;;47.90;25.40;;;;;;5049135;28;20267;-73
2021/07/31 10:43:19;;;;;;;3.42;3.22;;;47.40;25.60;;;;;;5052995;28;20276;-73
2021/07/31 10:45:49;;;;;;;3.22;3.13;;;47.20;25.70;;;;;;5051039;28;20205;-73
2021/07/31 10:48:29;;;;;;;3.60;3.40;;;47.10;25.80;;;;;;5052332;28;20189;-73
2021/07/31 10:50:57;;;;;;;5.13;3.30;;;47.30;25.70;;;;;;5054570;28;20716;-74
2021/07/31 10:53:50;;;;;;;3.40;3.10;;;47.70;25.30;;;;;;5051499;28;20220;-74
2021/07/31 10:56:17;;;;;;;4.20;3.25;;;48.30;25.10;;;;;;5051947;28;20198;-74
2021/07/31 10:59:24;;;;;;;3.88;3.50;;;48.70;24.70;;;;;;5042487;28;20201;-74
2021/07/31 11:02:11;;;;;;;3.50;3.30;;;49.20;24.80;;;;;;4954084;28;20710;-74
2021/07/31 11:04:58;;;;;;;3.50;3.30;;;49.80;24.30;;;;;;4970236;28;20204;-74
2021/07/31 11:07:29;;;;;;;3.47;3.28;;;50.50;24.20;;;;;;4957881;28;20296;-74
2021/07/31 11:10:39;;;;;;;3.20;3.10;;;50.80;23.60;;;;;;4969225;28;20212;-74
2021/07/31 11:13:06;;;;;;;4.03;3.42;;;50.70;23.30;;;;;;4913293;29;20241;-74
2021/07/31 11:15:34;;;;;;;3.55;3.25;;;50.70;23.40;;;;;;4912461;29;20202;-74
2021/07/31 11:18:02;;;;;;;6.00;3.58;;;50.90;23.30;;;;;;4912847;29;20304;-74
2021/07/31 11:20:34;;;;;;;3.35;3.15;;;51.20;23.20;;;;;;4912527;29;20230;-74
2021/07/31 11:23:07;;;;;;;4.55;4.18;;;51.30;23.10;;;;;;4911752;29;20753;-74
2021/07/31 11:25:34;;;;;;;4.43;4.03;;;51.40;23.10;;;;;;4911949;29;20308;-74
2021/07/31 11:28:08;;;;;;;4.45;3.78;;;51.30;22.80;;;;;;4897513;29;20210;-74
2021/07/31 11:30:37;;;;;;;4.35;4.03;;;51.20;22.80;;;;;;4896597;29;20627;-74
2021/07/31 11:33:17;;;;;;;3.63;3.42;;;50.80;22.70;;;;;;4912800;29;20218;-74
2021/07/31 11:35:46;;;;;;;4.03;3.80;;;49.90;23.20;;;;;;4902571;29;20218;-74
2021/07/31 11:38:36;;;;;;;3.60;3.40;;;48.70;23.70;;;;;;4916267;28;20203;-74
2021/07/31 11:41:06;;;;;;;5.40;3.75;;;47.80;24.30;;;;;;4988198;28;20203;-75
2021/07/31 11:43:48;;;;;;;4.38;3.63;;;46.50;24.90;;;;;;5025620;28;20320;-74
2021/07/31 11:46:37;;;;;;;3.97;3.72;;;45.90;25.60;;;;;;5051010;28;20217;-74
2021/07/31 11:49:09;;;;;;;6.22;4.07;;;46.30;25.70;;;;;;5042801;28;20518;-75
2021/07/31 11:51:47;;;;;;;4.22;3.58;;;46.20;25.10;;;;;;5050701;28;20693;-74
2021/07/31 11:54:14;;;;;;;3.78;3.58;;;45.40;25.50;;;;;;5050863;28;20247;-74
2021/07/31 11:56:42;;;;;;;5.85;3.60;;;44.30;26.10;;;;;;5049897;28;20199;-74
2021/07/31 11:59:10;;;;;;;3.72;3.42;;;42.90;26.90;;;;;;5050781;28;20204;-74
2021/07/31 12:01:38;;;;;;;3.38;3.17;;;41.80;27.70;;;;;;5050249;28;20197;-74
2021/07/31 12:04:06;;;;;;;3.60;3.30;;;40.80;28.50;;;;;;5051134;28;20206;-74
2021/07/31 12:06:39;;;;;;;4.43;3.30;;;39.90;29.10;;;;;;5051116;28;20933;-74
2021/07/31 12:09:19;;;;;;;3.33;3.13;;;39.00;29.70;;;;;;5048780;28;20210;-74
2021/07/31 12:11:47;;;;;;;3.05;2.85;;;38.40;30.40;;;;;;5049510;28;20192;-74
2021/07/31 12:14:34;;;;;;;2.92;2.83;;;37.80;31.30;;;;;;5051051;28;20201;-74
2021/07/31 12:17:25;;;;;;;3.67;3.22;;;37.20;31.60;;;;;;5050589;28;20189;-74
2021/07/31 12:19:54;;;;;;;2.92;2.80;;;36.70;32.50;;;;;;5003491;28;20241;-73
2021/07/31 12:22:23;;;;;;;2.50;2.40;;;36.10;32.90;;;;;;5006759;28;20217;-75
2021/07/31 12:25:14;;;;;;;4.97;2.90;;;35.70;33.20;;;;;;4991531;28;20316;-73
2021/07/31 12:27:54;;;;;;;2.85;2.65;;;35.70;33.60;;;;;;4998210;28;20210;-74
2021/07/31 12:30:27;;;;;;;4.57;2.80;;;36.00;33.70;;;;;;5005101;28;20211;-74
2021/07/31 12:32:55;;;;;;;3.47;2.90;;;36.00;33.80;;;;;;4992005;28;20697;-73
2021/07/31 12:35:33;;;;;;;3.25;3.05;;;35.90;34.00;;;;;;4991328;28;20209;-74
2021/07/31 12:38:00;;;;;;;2.53;2.33;;;35.80;34.90;;;;;;5007268;28;20217;-73
2021/07/31 12:40:28;;;;;;;3.45;2.88;;;35.70;34.40;;;;;;4990086;28;20316;-74
2021/07/31 12:42:55;;;;;;;2.70;2.58;;;35.60;34.60;;;;;;5005939;28;20246;-73
2021/07/31 12:45:22;;;;;;;3.25;3.05;;;35.50;35.70;;;;;;4999067;28;20206;-74
2021/07/31 12:47:49;;;;;;;3.15;2.95;;;35.30;35.30;;;;;;5007566;28;20226;-71
2021/07/31 12:50:16;;;;;;;2.67;2.28;;;35.10;35.50;;;;;;5002030;28;20293;-76
2021/07/31 12:52:43;;;;;;;2.85;2.65;;;34.90;35.70;;;;;;4983748;28;20202;-71
2021/07/31 12:55:10;;;;;;;3.20;3.00;;;34.60;36.10;;;;;;5002500;28;20542;-70
2021/07/31 12:57:38;;;;;;;2.90;2.60;;;34.30;36.50;;;;;;5044078;28;20297;-72
2021/07/31 13:00:07;;;;;;;2.60;2.50;;;34.00;36.90;;;;;;5041731;28;20553;-70
2021/07/31 13:02:33;;;;;;;2.20;2.10;;;33.80;37.20;;;;;;5026473;28;20217;-71